Terminal Aerodrome Forecast
Issued by NWS Upton, NY

Home | Current Version | Previous Version | Text Only | Print | Product List | Glossary On
Versions: 1 2 3 4 5 6 7 8 9 10 11 12 13 14 15 16 17 18 19 20 21 22 23 24 25 26 27 28
000
FTUS41 KOKX 211600 AAC
TAFEWR
TAF AMD
KEWR 211618Z 2116/2218 VRB04KT 4SM HZ SCT007 BKN015
      TEMPO 2117/2118 BKN020
     FM211800 VRB05KT 6SM HZ BKN025
     FM212000 15005KT 6SM HZ BKN035
     FM212200 18006KT P6SM SCT035 SCT250
     FM220000 26007KT P6SM SCT030 BKN250
     FM220500 28010KT P6SM SCT030
     FM221400 31015G21KT P6SM SCT030=

USA.gov is the U.S. government's official web portal to all federal, state and local government web resources and services.